Estación Meteorológica Peña el Pijo (Robertgarden) [ 12/17/17 01:40:08 CET ]

Fecha Hora Presion(HPa) Temp (°C) Humedad % Rocio (°C) Viento ( m/s) Direccion Lluvia 1Hora(mm) Lluvia 24H(mm) LLuvia Total(mm)
2017-Dec-07 01:01:49 1019.200 -3.5 71 -8.0         0.00
2017-Dec-07 02:01:44 1018.800 -3.6 72 -7.9         0.00
2017-Dec-07 03:01:42 1018.700 -3.8 72 -8.1         0.00
2017-Dec-07 04:06:10 1018.500 -4.2 73 -8.3         0.00
2017-Dec-07 05:01:36 1018.300 -4.7 73 -8.8         0.00
2017-Dec-07 06:01:37 1018.100 -4.9 73 -9.0         0.00
2017-Dec-07 07:01:37 1017.900 -4.5 73 -8.6         0.00
2017-Dec-07 08:01:44 1018.000 -4.7 73 -8.8         0.00
2017-Dec-07 09:01:52 1018.300 -4.3 73 -8.4         0.00
2017-Dec-07 10:01:35 1018.800 2.2 70 -2.7         0.00
2017-Dec-07 11:01:44 1018.900 9.3 48 -1.2         0.00
2017-Dec-07 12:01:39 1018.300 12.6 33 -3.4         0.00
2017-Dec-07 13:01:47 1017.300 14.0 28 -4.4         0.00
2017-Dec-07 14:01:48 1016.800 16.4 23 -5.0 0.3 SE     0.00
2017-Dec-07 15:01:46 1016.300 15.2 22 -6.6 1.3 ESE     0.00
2017-Dec-07 16:02:01 1016.100 14.9 24 -5.7         0.00
2017-Dec-07 17:01:50 1016.500 12.3 26 -6.9         0.00
2017-Dec-07 18:01:50 1016.600 8.1 34 -6.9         0.00
2017-Dec-07 19:02:04 1017.000 3.2 43 -8.2         0.00
2017-Dec-07 20:01:58 1017.700 1.3 49 -8.3         0.00
2017-Dec-07 21:01:51 1017.800 0.4 52 -8.4         0.00
2017-Dec-07 22:01:49 1017.700 -0.3 56 -8.1         0.00
2017-Dec-07 23:01:47 1017.600 0.6 56 -7.2         0.00

Temperatura Máxima:16°    Temperatura Mínima:-4°
Presión Máxima:1019.200 Hpa    Presión Mínima:1016.100 Hpa


Volver